sensor_id;sensor_type;location;lat;lon;timestamp;temperature;humidity
66610;DHT22;53468;48.276;14.416;2022-08-01T00:00:47;20.40;99.90
66610;DHT22;53468;48.276;14.416;2022-08-01T00:06:22;20.40;99.90
66610;DHT22;53468;48.276;14.416;2022-08-01T00:11:56;20.20;99.90
66610;DHT22;53468;48.276;14.416;2022-08-01T00:17:28;20.20;99.90
66610;DHT22;53468;48.276;14.416;2022-08-01T00:23:02;20.10;99.90
66610;DHT22;53468;48.276;14.416;2022-08-01T00:28:37;20.10;99.90
66610;DHT22;53468;48.276;14.416;2022-08-01T00:34:10;20.00;99.90
66610;DHT22;53468;48.276;14.416;2022-08-01T00:39:45;20.00;99.90
66610;DHT22;53468;48.276;14.416;2022-08-01T00:45:19;20.00;99.90
66610;DHT22;53468;48.276;14.416;2022-08-01T00:50:52;20.00;99.90
66610;DHT22;53468;48.276;14.416;2022-08-01T00:56:26;20.00;99.90
66610;DHT22;53468;48.276;14.416;2022-08-01T01:02:00;19.90;99.90
66610;DHT22;53468;48.276;14.416;2022-08-01T01:07:40;19.80;99.90
66610;DHT22;53468;48.276;14.416;2022-08-01T01:13:23;19.70;99.90
66610;DHT22;53468;48.276;14.416;2022-08-01T01:19:01;19.80;99.90
66610;DHT22;53468;48.276;14.416;2022-08-01T01:24:40;19.70;99.90
66610;DHT22;53468;48.276;14.416;2022-08-01T01:30:18;19.60;99.90
66610;DHT22;53468;48.276;14.416;2022-08-01T01:35:59;19.60;99.90
66610;DHT22;53468;48.276;14.416;2022-08-01T01:41:32;19.60;99.90
66610;DHT22;53468;48.276;14.416;2022-08-01T01:47:07;19.60;99.90
66610;DHT22;53468;48.276;14.416;2022-08-01T01:52:42;19.60;99.90
66610;DHT22;53468;48.276;14.416;2022-08-01T01:58:17;19.50;99.90
66610;DHT22;53468;48.276;14.416;2022-08-01T02:03:55;19.50;99.90
66610;DHT22;53468;48.276;14.416;2022-08-01T02:09:29;19.40;99.90
66610;DHT22;53468;48.276;14.416;2022-08-01T02:15:04;19.40;99.90
66610;DHT22;53468;48.276;14.416;2022-08-01T02:20:39;19.40;99.90
66610;DHT22;53468;48.276;14.416;2022-08-01T02:26:16;19.30;99.90
66610;DHT22;53468;48.276;14.416;2022-08-01T02:31:51;19.30;99.90
66610;DHT22;53468;48.276;14.416;2022-08-01T02:37:29;19.30;99.90
66610;DHT22;53468;48.276;14.416;2022-08-01T02:43:06;19.10;99.90
66610;DHT22;53468;48.276;14.416;2022-08-01T02:48:41;19.20;99.90
66610;DHT22;53468;48.276;14.416;2022-08-01T02:54:18;19.20;99.90
66610;DHT22;53468;48.276;14.416;2022-08-01T02:59:57;19.20;99.90
66610;DHT22;53468;48.276;14.416;2022-08-01T03:05:50;19.10;99.90
66610;DHT22;53468;48.276;14.416;2022-08-01T03:11:26;19.10;99.90
66610;DHT22;53468;48.276;14.416;2022-08-01T03:17:01;19.10;99.90
66610;DHT22;53468;48.276;14.416;2022-08-01T03:22:35;19.00;99.90
66610;DHT22;53468;48.276;14.416;2022-08-01T03:28:16;18.90;99.90
66610;DHT22;53468;48.276;14.416;2022-08-01T03:33:52;18.90;99.90
66610;DHT22;53468;48.276;14.416;2022-08-01T03:39:30;18.80;99.90
66610;DHT22;53468;48.276;14.416;2022-08-01T03:45:11;18.80;99.90
66610;DHT22;53468;48.276;14.416;2022-08-01T03:50:50;18.80;99.90
66610;DHT22;53468;48.276;14.416;2022-08-01T03:56:25;18.90;99.90
66610;DHT22;53468;48.276;14.416;2022-08-01T04:02:04;18.90;99.90
66610;DHT22;53468;48.276;14.416;2022-08-01T04:07:47;18.90;99.90
66610;DHT22;53468;48.276;14.416;2022-08-01T04:13:27;18.90;99.90
66610;DHT22;53468;48.276;14.416;2022-08-01T04:19:10;19.00;99.90
66610;DHT22;53468;48.276;14.416;2022-08-01T04:24:47;19.00;99.90
66610;DHT22;53468;48.276;14.416;2022-08-01T04:30:28;19.00;99.90
66610;DHT22;53468;48.276;14.416;2022-08-01T04:36:06;19.10;99.90
66610;DHT22;53468;48.276;14.416;2022-08-01T04:41:47;19.00;99.90
66610;DHT22;53468;48.276;14.416;2022-08-01T04:47:43;19.10;99.90
66610;DHT22;53468;48.276;14.416;2022-08-01T04:53:19;19.10;99.90
66610;DHT22;53468;48.276;14.416;2022-08-01T04:58:55;19.30;99.90
66610;DHT22;53468;48.276;14.416;2022-08-01T05:04:55;19.40;99.90
66610;DHT22;53468;48.276;14.416;2022-08-01T05:10:30;19.50;99.90
66610;DHT22;53468;48.276;14.416;2022-08-01T05:16:03;19.70;99.90
66610;DHT22;53468;48.276;14.416;2022-08-01T05:21:38;19.80;99.90
66610;DHT22;53468;48.276;14.416;2022-08-01T05:27:12;20.00;99.90
66610;DHT22;53468;48.276;14.416;2022-08-01T05:32:44;20.10;99.90
66610;DHT22;53468;48.276;14.416;2022-08-01T05:38:16;20.30;99.90
66610;DHT22;53468;48.276;14.416;2022-08-01T05:43:51;20.40;99.90
66610;DHT22;53468;48.276;14.416;2022-08-01T05:49:23;20.30;99.90
66610;DHT22;53468;48.276;14.416;2022-08-01T05:54:55;20.30;99.90
66610;DHT22;53468;48.276;14.416;2022-08-01T06:00:29;20.30;99.90
66610;DHT22;53468;48.276;14.416;2022-08-01T06:06:02;20.30;99.90
66610;DHT22;53468;48.276;14.416;2022-08-01T06:11:34;20.30;99.90
66610;DHT22;53468;48.276;14.416;2022-08-01T06:17:09;20.30;99.90
66610;DHT22;53468;48.276;14.416;2022-08-01T06:22:41;20.50;99.90
66610;DHT22;53468;48.276;14.416;2022-08-01T06:28:13;20.70;99.90
66610;DHT22;53468;48.276;14.416;2022-08-01T06:33:47;20.70;99.90
66610;DHT22;53468;48.276;14.416;2022-08-01T06:39:19;21.00;99.90
66610;DHT22;53468;48.276;14.416;2022-08-01T06:44:51;21.10;99.90
66610;DHT22;53468;48.276;14.416;2022-08-01T06:50:25;21.30;99.90
66610;DHT22;53468;48.276;14.416;2022-08-01T06:55:57;21.30;99.90
66610;DHT22;53468;48.276;14.416;2022-08-01T07:01:29;21.50;99.90
66610;DHT22;53468;48.276;14.416;2022-08-01T07:07:03;21.60;99.90
66610;DHT22;53468;48.276;14.416;2022-08-01T07:12:35;21.70;99.90
66610;DHT22;53468;48.276;14.416;2022-08-01T07:18:08;21.90;99.90
66610;DHT22;53468;48.276;14.416;2022-08-01T07:23:42;22.10;99.90
66610;DHT22;53468;48.276;14.416;2022-08-01T07:29:15;22.30;99.90
66610;DHT22;53468;48.276;14.416;2022-08-01T07:34:47;22.60;99.90
66610;DHT22;53468;48.276;14.416;2022-08-01T07:40:20;22.90;99.90
66610;DHT22;53468;48.276;14.416;2022-08-01T07:45:53;22.90;99.90
66610;DHT22;53468;48.276;14.416;2022-08-01T07:51:25;23.10;99.90
66610;DHT22;53468;48.276;14.416;2022-08-01T07:56:59;23.30;99.90
66610;DHT22;53468;48.276;14.416;2022-08-01T08:02:31;23.50;99.90
66610;DHT22;53468;48.276;14.416;2022-08-01T08:08:05;23.80;99.90
66610;DHT22;53468;48.276;14.416;2022-08-01T08:13:38;24.10;99.90
66610;DHT22;53468;48.276;14.416;2022-08-01T08:19:11;24.30;99.90
66610;DHT22;53468;48.276;14.416;2022-08-01T08:24:44;24.30;99.90
66610;DHT22;53468;48.276;14.416;2022-08-01T08:30:17;24.60;99.90
66610;DHT22;53468;48.276;14.416;2022-08-01T08:35:49;24.50;99.90
66610;DHT22;53468;48.276;14.416;2022-08-01T08:41:22;24.70;99.90
66610;DHT22;53468;48.276;14.416;2022-08-01T08:46:58;25.20;99.90
66610;DHT22;53468;48.276;14.416;2022-08-01T08:52:35;25.00;99.10
66610;DHT22;53468;48.276;14.416;2022-08-01T08:58:11;25.00;98.90
66610;DHT22;53468;48.276;14.416;2022-08-01T09:03:46;25.10;99.20
66610;DHT22;53468;48.276;14.416;2022-08-01T09:09:19;25.20;99.90
66610;DHT22;53468;48.276;14.416;2022-08-01T09:14:51;25.50;98.20
66610;DHT22;53468;48.276;14.416;2022-08-01T09:20:25;26.20;97.10
66610;DHT22;53468;48.276;14.416;2022-08-01T09:25:58;26.40;93.70
66610;DHT22;53468;48.276;14.416;2022-08-01T09:31:40;26.80;95.90
66610;DHT22;53468;48.276;14.416;2022-08-01T09:37:14;26.90;93.30
66610;DHT22;53468;48.276;14.416;2022-08-01T09:42:48;27.10;93.80
66610;DHT22;53468;48.276;14.416;2022-08-01T09:48:22;27.50;93.10
66610;DHT22;53468;48.276;14.416;2022-08-01T09:53:57;27.30;94.30
66610;DHT22;53468;48.276;14.416;2022-08-01T09:59:34;27.60;92.80
66610;DHT22;53468;48.276;14.416;2022-08-01T10:05:09;27.30;91.30
66610;DHT22;53468;48.276;14.416;2022-08-01T10:11:05;27.50;92.90
66610;DHT22;53468;48.276;14.416;2022-08-01T10:16:38;27.60;93.50
66610;DHT22;53468;48.276;14.416;2022-08-01T10:22:12;27.70;91.50
66610;DHT22;53468;48.276;14.416;2022-08-01T10:27:49;28.10;91.50
66610;DHT22;53468;48.276;14.416;2022-08-01T10:33:25;28.00;92.40
66610;DHT22;53468;48.276;14.416;2022-08-01T10:38:58;28.00;91.70
66610;DHT22;53468;48.276;14.416;2022-08-01T10:44:32;28.40;92.70
66610;DHT22;53468;48.276;14.416;2022-08-01T10:50:11;28.30;91.30
66610;DHT22;53468;48.276;14.416;2022-08-01T10:55:47;28.30;91.50
66610;DHT22;53468;48.276;14.416;2022-08-01T11:01:23;28.40;91.40
66610;DHT22;53468;48.276;14.416;2022-08-01T11:07:04;28.40;91.50
66610;DHT22;53468;48.276;14.416;2022-08-01T11:12:41;28.70;89.90
66610;DHT22;53468;48.276;14.416;2022-08-01T11:18:32;28.90;90.20
66610;DHT22;53468;48.276;14.416;2022-08-01T11:24:05;28.80;83.90
66610;DHT22;53468;48.276;14.416;2022-08-01T11:29:37;28.70;88.00
66610;DHT22;53468;48.276;14.416;2022-08-01T11:35:11;29.00;90.50
66610;DHT22;53468;48.276;14.416;2022-08-01T11:40:43;29.00;89.80
66610;DHT22;53468;48.276;14.416;2022-08-01T11:46:15;29.00;83.50
66610;DHT22;53468;48.276;14.416;2022-08-01T11:51:57;28.90;81.60
66610;DHT22;53468;48.276;14.416;2022-08-01T11:57:31;28.70;82.90
66610;DHT22;53468;48.276;14.416;2022-08-01T12:03:07;29.20;85.40
66610;DHT22;53468;48.276;14.416;2022-08-01T12:08:40;28.70;85.60
66610;DHT22;53468;48.276;14.416;2022-08-01T12:14:19;29.00;83.60
66610;DHT22;53468;48.276;14.416;2022-08-01T12:19:52;29.40;81.40
66610;DHT22;53468;48.276;14.416;2022-08-01T12:25:26;29.60;78.30
66610;DHT22;53468;48.276;14.416;2022-08-01T12:30:59;29.60;79.30
66610;DHT22;53468;48.276;14.416;2022-08-01T12:36:31;30.00;82.00
66610;DHT22;53468;48.276;14.416;2022-08-01T12:42:07;30.00;74.40
66610;DHT22;53468;48.276;14.416;2022-08-01T12:47:41;29.50;77.60
66610;DHT22;53468;48.276;14.416;2022-08-01T12:53:14;29.20;77.00
66610;DHT22;53468;48.276;14.416;2022-08-01T12:58:50;28.70;80.30
66610;DHT22;53468;48.276;14.416;2022-08-01T13:04:24;28.30;80.80
66610;DHT22;53468;48.276;14.416;2022-08-01T13:09:57;28.50;85.50
66610;DHT22;53468;48.276;14.416;2022-08-01T13:15:31;28.50;79.50
66610;DHT22;53468;48.276;14.416;2022-08-01T13:21:09;28.30;83.80
66610;DHT22;53468;48.276;14.416;2022-08-01T13:26:44;28.20;81.70
66610;DHT22;53468;48.276;14.416;2022-08-01T13:32:19;26.80;89.00
66610;DHT22;53468;48.276;14.416;2022-08-01T13:37:51;25.40;91.90
66610;DHT22;53468;48.276;14.416;2022-08-01T13:43:23;24.20;95.40
66610;DHT22;53468;48.276;14.416;2022-08-01T13:48:57;23.60;96.60
66610;DHT22;53468;48.276;14.416;2022-08-01T13:54:30;23.70;98.90
66610;DHT22;53468;48.276;14.416;2022-08-01T14:00:04;23.70;99.90
66610;DHT22;53468;48.276;14.416;2022-08-01T14:05:38;23.90;99.90
66610;DHT22;53468;48.276;14.416;2022-08-01T14:11:10;24.40;99.20
66610;DHT22;53468;48.276;14.416;2022-08-01T14:16:43;25.20;99.90
66610;DHT22;53468;48.276;14.416;2022-08-01T14:22:17;25.60;95.00
66610;DHT22;53468;48.276;14.416;2022-08-01T14:27:49;26.60;92.40
66610;DHT22;53468;48.276;14.416;2022-08-01T14:33:22;27.20;90.40
66610;DHT22;53468;48.276;14.416;2022-08-01T14:38:55;27.40;90.20
66610;DHT22;53468;48.276;14.416;2022-08-01T14:44:27;27.80;90.00
66610;DHT22;53468;48.276;14.416;2022-08-01T14:49:59;28.00;87.90
66610;DHT22;53468;48.276;14.416;2022-08-01T14:55:33;28.20;83.40
66610;DHT22;53468;48.276;14.416;2022-08-01T15:01:05;28.10;83.10
66610;DHT22;53468;48.276;14.416;2022-08-01T15:06:37;28.10;84.00
66610;DHT22;53468;48.276;14.416;2022-08-01T15:12:11;28.20;83.00
66610;DHT22;53468;48.276;14.416;2022-08-01T15:17:43;28.60;85.20
66610;DHT22;53468;48.276;14.416;2022-08-01T15:23:15;28.70;84.70
66610;DHT22;53468;48.276;14.416;2022-08-01T15:28:50;29.00;86.50
66610;DHT22;53468;48.276;14.416;2022-08-01T15:34:22;29.10;84.20
66610;DHT22;53468;48.276;14.416;2022-08-01T15:39:55;29.00;83.30
66610;DHT22;53468;48.276;14.416;2022-08-01T15:45:30;28.90;82.30
66610;DHT22;53468;48.276;14.416;2022-08-01T15:51:02;28.70;84.80
66610;DHT22;53468;48.276;14.416;2022-08-01T15:56:35;28.20;87.00
66610;DHT22;53468;48.276;14.416;2022-08-01T16:02:08;28.00;85.30
66610;DHT22;53468;48.276;14.416;2022-08-01T16:07:41;27.90;89.30
66610;DHT22;53468;48.276;14.416;2022-08-01T16:13:13;27.90;90.60
66610;DHT22;53468;48.276;14.416;2022-08-01T16:18:46;27.70;90.80
66610;DHT22;53468;48.276;14.416;2022-08-01T16:24:19;27.40;91.30
66610;DHT22;53468;48.276;14.416;2022-08-01T16:29:51;27.00;91.80
66610;DHT22;53468;48.276;14.416;2022-08-01T16:35:24;26.70;93.00
66610;DHT22;53468;48.276;14.416;2022-08-01T16:40:56;26.50;92.70
66610;DHT22;53468;48.276;14.416;2022-08-01T16:46:29;26.40;93.10
66610;DHT22;53468;48.276;14.416;2022-08-01T16:52:03;26.50;93.00
66610;DHT22;53468;48.276;14.416;2022-08-01T16:57:36;26.50;92.60
66610;DHT22;53468;48.276;14.416;2022-08-01T17:03:10;26.20;92.80
66610;DHT22;53468;48.276;14.416;2022-08-01T17:08:44;25.90;92.20
66610;DHT22;53468;48.276;14.416;2022-08-01T17:14:17;25.80;94.00
66610;DHT22;53468;48.276;14.416;2022-08-01T17:19:49;25.60;91.70
66610;DHT22;53468;48.276;14.416;2022-08-01T17:25:23;25.60;92.50
66610;DHT22;53468;48.276;14.416;2022-08-01T17:30:56;25.40;91.80
66610;DHT22;53468;48.276;14.416;2022-08-01T17:36:28;25.20;92.40
66610;DHT22;53468;48.276;14.416;2022-08-01T17:42:02;25.20;92.60
66610;DHT22;53468;48.276;14.416;2022-08-01T17:47:34;25.10;93.00
66610;DHT22;53468;48.276;14.416;2022-08-01T17:53:06;25.10;93.20
66610;DHT22;53468;48.276;14.416;2022-08-01T17:58:40;25.00;93.50
66610;DHT22;53468;48.276;14.416;2022-08-01T18:04:12;24.90;94.80
66610;DHT22;53468;48.276;14.416;2022-08-01T18:09:44;24.80;94.00
66610;DHT22;53468;48.276;14.416;2022-08-01T18:15:18;24.60;95.10
66610;DHT22;53468;48.276;14.416;2022-08-01T18:20:50;24.50;94.90
66610;DHT22;53468;48.276;14.416;2022-08-01T18:26:22;24.30;95.70
66610;DHT22;53468;48.276;14.416;2022-08-01T18:31:56;24.10;98.90
66610;DHT22;53468;48.276;14.416;2022-08-01T18:37:32;23.90;99.70
66610;DHT22;53468;48.276;14.416;2022-08-01T18:43:04;23.70;98.70
66610;DHT22;53468;48.276;14.416;2022-08-01T18:48:38;23.60;99.20
66610;DHT22;53468;48.276;14.416;2022-08-01T18:54:11;23.50;99.50
66610;DHT22;53468;48.276;14.416;2022-08-01T18:59:44;23.40;99.20
66610;DHT22;53468;48.276;14.416;2022-08-01T19:05:17;23.40;99.90
66610;DHT22;53468;48.276;14.416;2022-08-01T19:10:49;23.10;99.90
66610;DHT22;53468;48.276;14.416;2022-08-01T19:16:21;23.00;99.90
66610;DHT22;53468;48.276;14.416;2022-08-01T19:21:55;23.00;99.90
66610;DHT22;53468;48.276;14.416;2022-08-01T19:27:29;22.90;99.90
66610;DHT22;53468;48.276;14.416;2022-08-01T19:33:02;22.90;99.90
66610;DHT22;53468;48.276;14.416;2022-08-01T19:38:36;22.70;99.90
66610;DHT22;53468;48.276;14.416;2022-08-01T19:44:11;22.70;99.90
66610;DHT22;53468;48.276;14.416;2022-08-01T19:49:44;22.50;99.90
66610;DHT22;53468;48.276;14.416;2022-08-01T19:55:18;22.30;99.90
66610;DHT22;53468;48.276;14.416;2022-08-01T20:00:52;22.20;99.90
66610;DHT22;53468;48.276;14.416;2022-08-01T20:06:25;22.10;99.90
66610;DHT22;53468;48.276;14.416;2022-08-01T20:12:01;21.90;99.90
66610;DHT22;53468;48.276;14.416;2022-08-01T20:17:33;21.80;99.90
66610;DHT22;53468;48.276;14.416;2022-08-01T20:23:09;21.80;99.90
66610;DHT22;53468;48.276;14.416;2022-08-01T20:28:45;21.90;99.90
66610;DHT22;53468;48.276;14.416;2022-08-01T20:34:21;21.90;99.90
66610;DHT22;53468;48.276;14.416;2022-08-01T20:39:54;22.00;99.90
66610;DHT22;53468;48.276;14.416;2022-08-01T20:45:30;22.00;99.90
66610;DHT22;53468;48.276;14.416;2022-08-01T20:51:02;21.90;99.90
66610;DHT22;53468;48.276;14.416;2022-08-01T20:56:53;21.90;99.90
66610;DHT22;53468;48.276;14.416;2022-08-01T21:02:38;22.00;99.90
66610;DHT22;53468;48.276;14.416;2022-08-01T21:08:16;21.90;99.90
66610;DHT22;53468;48.276;14.416;2022-08-01T21:13:50;21.90;99.90
66610;DHT22;53468;48.276;14.416;2022-08-01T21:19:26;21.80;99.90
66610;DHT22;53468;48.276;14.416;2022-08-01T21:25:03;21.80;99.90
66610;DHT22;53468;48.276;14.416;2022-08-01T21:30:37;21.70;99.90
66610;DHT22;53468;48.276;14.416;2022-08-01T21:36:12;21.60;99.90
66610;DHT22;53468;48.276;14.416;2022-08-01T21:41:45;21.50;99.90
66610;DHT22;53468;48.276;14.416;2022-08-01T21:47:17;21.50;99.90
66610;DHT22;53468;48.276;14.416;2022-08-01T21:53:01;21.50;99.90
66610;DHT22;53468;48.276;14.416;2022-08-01T21:58:40;21.40;99.90
66610;DHT22;53468;48.276;14.416;2022-08-01T22:04:17;21.40;99.90
66610;DHT22;53468;48.276;14.416;2022-08-01T22:09:52;21.30;99.90
66610;DHT22;53468;48.276;14.416;2022-08-01T22:15:27;21.20;99.90
66610;DHT22;53468;48.276;14.416;2022-08-01T22:21:01;21.20;99.90
66610;DHT22;53468;48.276;14.416;2022-08-01T22:26:37;21.10;99.90
66610;DHT22;53468;48.276;14.416;2022-08-01T22:32:09;21.10;99.90
66610;DHT22;53468;48.276;14.416;2022-08-01T22:37:44;21.00;99.90
66610;DHT22;53468;48.276;14.416;2022-08-01T22:43:27;21.00;99.90
66610;DHT22;53468;48.276;14.416;2022-08-01T22:49:05;20.90;99.90
66610;DHT22;53468;48.276;14.416;2022-08-01T22:54:40;20.70;99.90
66610;DHT22;53468;48.276;14.416;2022-08-01T23:00:17;20.60;99.90
66610;DHT22;53468;48.276;14.416;2022-08-01T23:05:55;20.60;99.90
66610;DHT22;53468;48.276;14.416;2022-08-01T23:11:33;20.40;99.90
66610;DHT22;53468;48.276;14.416;2022-08-01T23:17:07;20.20;99.90
66610;DHT22;53468;48.276;14.416;2022-08-01T23:22:41;20.10;99.90
66610;DHT22;53468;48.276;14.416;2022-08-01T23:28:14;19.90;99.90
66610;DHT22;53468;48.276;14.416;2022-08-01T23:33:51;19.80;99.90
66610;DHT22;53468;48.276;14.416;2022-08-01T23:39:23;19.70;99.90
66610;DHT22;53468;48.276;14.416;2022-08-01T23:44:55;19.60;99.90
66610;DHT22;53468;48.276;14.416;2022-08-01T23:50:28;19.50;99.90
66610;DHT22;53468;48.276;14.416;2022-08-01T23:56:01;19.50;99.90
